Terminal Aerodrome Forecast
Issued by NWS

Home | Current Version | Previous Version | Text Only | Print | Product List | Glossary On
Versions: 1 2 3 4 5 6 7 8 9 10 11 12
000
FTUS46 KSTO 020533
TAFSMF
TAF
KSMF 020533Z 0206/0306 VRB05KT P6SM BKN200
     FM021000 16008KT P6SM SCT150 BKN200
     FM022300 19012KT P6SM SCT150 OVC200=

USA.gov is the U.S. government's official web portal to all federal, state and local government web resources and services.